createdAt,value
2023-03-15T00:01:17.098Z,94305.94
2023-03-15T00:03:43.761Z,94303.16
2023-03-15T00:06:10.627Z,94300.59
2023-03-15T00:08:37.512Z,94308.28
2023-03-15T00:11:04.144Z,94303.31
2023-03-15T00:13:30.768Z,94303.53
2023-03-15T00:15:59.388Z,94301.94
2023-03-15T00:18:26.373Z,94313.16
2023-03-15T00:20:53.084Z,94309.19
2023-03-15T00:23:19.533Z,94308.25
2023-03-15T00:25:46.786Z,94314.34
2023-03-15T00:28:13.793Z,94313.84
2023-03-15T00:30:40.297Z,94317.06
2023-03-15T00:33:06.847Z,94316.56
2023-03-15T00:35:34.051Z,94331.13
2023-03-15T00:38:00.885Z,94333.31
2023-03-15T00:40:27.542Z,94344.69
2023-03-15T00:42:54.021Z,94348.47
2023-03-15T00:45:21.353Z,94353.25
2023-03-15T00:47:51.454Z,94351.19
2023-03-15T00:50:18.053Z,94352.53
2023-03-15T00:52:44.718Z,94352.31
2023-03-15T00:55:15.445Z,94354.69
2023-03-15T00:57:43.047Z,94353.31
2023-03-15T01:00:11.278Z,94346.19
2023-03-15T01:02:37.830Z,94363.66
2023-03-15T01:05:06.202Z,94368.44
2023-03-15T01:07:35.673Z,94367.94
2023-03-15T01:10:03.263Z,94359.50
2023-03-15T01:12:32.785Z,94362.63
2023-03-15T01:14:59.628Z,94373.22
2023-03-15T01:17:26.240Z,94374.00
2023-03-15T01:19:53.220Z,94373.72
2023-03-15T01:22:20.435Z,94381.47
2023-03-15T01:24:46.881Z,94384.06
2023-03-15T01:27:13.356Z,94386.47
2023-03-15T01:29:39.843Z,94391.28
2023-03-15T01:32:06.795Z,94390.78
2023-03-15T01:34:33.736Z,94377.81
2023-03-15T01:37:00.985Z,94385.75
2023-03-15T01:39:27.478Z,94381.97
2023-03-15T01:41:53.936Z,94376.13
2023-03-15T01:44:20.723Z,94373.53
2023-03-15T01:46:47.407Z,94374.66
2023-03-15T01:49:29.649Z,94376.25
2023-03-15T01:51:58.633Z,94373.53
2023-03-15T01:54:31.215Z,94388.41
2023-03-15T01:57:02.133Z,94385.50
2023-03-15T01:59:40.725Z,94389.50
2023-03-15T02:02:07.815Z,94387.34
2023-03-15T02:04:36.885Z,94406.66
2023-03-15T02:07:03.898Z,94407.00
2023-03-15T02:09:44.551Z,94408.00
2023-03-15T02:12:11.283Z,94413.72
2023-03-15T02:14:38.488Z,94447.22
2023-03-15T02:17:05.120Z,94466.53
2023-03-15T02:19:48.598Z,94472.25
2023-03-15T02:22:27.572Z,94483.91
2023-03-15T02:24:58.845Z,94486.63
2023-03-15T02:27:29.308Z,94490.78
2023-03-15T02:29:56.013Z,94478.78
2023-03-15T02:32:22.526Z,94493.09
2023-03-15T02:34:49.089Z,94492.28
2023-03-15T02:37:15.535Z,94501.84
2023-03-15T02:39:41.992Z,94504.38
2023-03-15T02:42:08.553Z,94506.41
2023-03-15T02:44:39.497Z,94502.06
2023-03-15T02:47:08.560Z,94518.09
2023-03-15T02:49:37.685Z,94516.94
2023-03-15T02:52:04.316Z,94514.41
2023-03-15T02:54:34.307Z,94516.38
2023-03-15T02:57:01.776Z,94518.09
2023-03-15T02:59:28.221Z,94529.53
2023-03-15T03:01:54.715Z,94531.59
2023-03-15T03:04:21.193Z,94535.16
2023-03-15T03:06:47.642Z,94535.38
2023-03-15T03:09:14.086Z,94543.16
2023-03-15T03:11:40.562Z,94548.09
2023-03-15T03:14:07.029Z,94550.13
2023-03-15T03:16:33.597Z,94553.69
2023-03-15T03:19:00.546Z,94563.16
2023-03-15T03:21:27.027Z,94565.16
2023-03-15T03:23:54.800Z,94578.59
2023-03-15T03:26:21.476Z,94589.31
2023-03-15T03:28:49.689Z,94595.41
2023-03-15T03:31:20.157Z,94598.34
2023-03-15T03:33:46.946Z,94611.78
2023-03-15T03:36:13.530Z,94620.97
2023-03-15T03:38:40.836Z,94617.88
2023-03-15T03:41:07.523Z,94623.25
2023-03-15T03:43:33.985Z,94631.00
2023-03-15T03:46:00.479Z,94641.97
2023-03-15T03:48:26.976Z,94639.47
2023-03-15T03:50:53.432Z,94653.69
2023-03-15T03:53:19.876Z,94656.66
2023-03-15T03:55:46.788Z,94654.28
2023-03-15T03:58:13.271Z,94666.03
2023-03-15T04:00:39.985Z,94665.41
2023-03-15T04:03:06.427Z,94667.00
2023-03-15T04:05:32.904Z,94686.41
2023-03-15T04:07:59.354Z,94695.75
2023-03-15T04:10:28.454Z,94706.66
2023-03-15T04:12:55.497Z,94700.66
2023-03-15T04:15:25.071Z,94694.25
2023-03-15T04:17:58.405Z,94702.75
2023-03-15T04:20:28.235Z,94698.34
2023-03-15T04:22:54.750Z,94699.56
2023-03-15T04:25:21.766Z,94702.00
2023-03-15T04:27:58.858Z,94707.69
2023-03-15T04:30:27.227Z,94713.31
2023-03-15T04:33:00.380Z,94719.63
2023-03-15T04:35:27.070Z,94730.69
2023-03-15T04:37:53.680Z,94731.94
2023-03-15T04:40:20.382Z,94739.19
2023-03-15T04:42:46.830Z,94742.41
2023-03-15T04:45:13.308Z,94740.19
2023-03-15T04:47:39.756Z,94746.66
2023-03-15T04:50:06.452Z,94742.81
2023-03-15T04:52:32.914Z,94758.78
2023-03-15T04:54:59.356Z,94749.72
2023-03-15T04:57:25.818Z,94764.22
2023-03-15T04:59:52.285Z,94756.16
2023-03-15T05:02:18.932Z,94767.47
2023-03-15T05:04:45.400Z,94765.03
2023-03-15T05:07:11.973Z,94769.47
2023-03-15T05:09:39.786Z,94775.69
2023-03-15T05:12:07.151Z,94771.19
2023-03-15T05:14:33.698Z,94785.13
2023-03-15T05:17:02.099Z,94783.53
2023-03-15T05:19:28.763Z,94798.03
2023-03-15T05:21:55.268Z,94802.44
2023-03-15T05:24:22.366Z,94803.22
2023-03-15T05:26:48.856Z,94801.16
2023-03-15T05:29:15.641Z,94804.41
2023-03-15T05:31:42.155Z,94806.78
2023-03-15T05:34:08.616Z,94809.19
2023-03-15T05:36:35.042Z,94811.19
2023-03-15T05:39:03.312Z,94812.44
2023-03-15T05:41:29.822Z,94824.50
2023-03-15T05:43:56.577Z,94832.56
2023-03-15T05:46:23.055Z,94831.94
2023-03-15T05:52:11.328Z,94841.78
2023-03-15T05:54:37.879Z,94839.97
2023-03-15T05:57:04.484Z,94839.34
2023-03-15T05:59:31.068Z,94844.56
2023-03-15T06:01:57.505Z,94846.22
2023-03-15T06:04:24.696Z,94851.69
2023-03-15T06:06:51.960Z,94847.03
2023-03-15T06:09:18.457Z,94860.13
2023-03-15T06:11:44.903Z,94854.66
2023-03-15T06:14:11.342Z,94866.00
2023-03-15T06:16:37.856Z,94861.59
2023-03-15T06:19:04.387Z,94861.59
2023-03-15T06:21:30.914Z,94864.00
2023-03-15T06:23:57.396Z,94873.28
2023-03-15T06:26:23.884Z,94876.91
2023-03-15T06:28:50.674Z,94877.69
2023-03-15T06:31:17.531Z,94873.38
2023-03-15T06:33:44.064Z,94889.00
2023-03-15T06:36:11.182Z,94886.56
2023-03-15T06:38:37.725Z,94884.94
2023-03-15T06:41:05.232Z,94889.84
2023-03-15T06:43:31.921Z,94895.44
2023-03-15T06:46:00.038Z,94897.66
2023-03-15T06:48:27.511Z,94898.88
2023-03-15T06:50:54.060Z,94903.91
2023-03-15T06:53:20.842Z,94900.13
2023-03-15T06:55:47.768Z,94906.44
2023-03-15T06:58:14.623Z,94905.00
2023-03-15T07:00:41.159Z,94909.63
2023-03-15T07:03:07.643Z,94917.63
2023-03-15T07:05:34.129Z,94911.88
2023-03-15T07:08:00.627Z,94911.28
2023-03-15T07:10:27.138Z,94915.31
2023-03-15T07:12:53.800Z,94922.34
2023-03-15T07:15:20.439Z,94926.56
2023-03-15T07:17:47.026Z,94926.31
2023-03-15T07:20:13.568Z,94936.91
2023-03-15T07:22:40.157Z,94925.84
2023-03-15T07:25:07.559Z,94933.69
2023-03-15T07:31:36.813Z,94940.31
2023-03-15T07:34:03.394Z,94941.88
2023-03-15T07:36:29.909Z,94947.53
2023-03-15T07:38:56.340Z,94955.16
2023-03-15T07:41:22.832Z,94944.19
2023-03-15T07:43:49.369Z,94945.78
2023-03-15T07:46:15.873Z,94952.53
2023-03-15T07:48:42.344Z,94962.84
2023-03-15T07:51:08.825Z,94958.63
2023-03-15T07:53:35.359Z,94972.97
2023-03-15T07:56:02.038Z,94982.69
2023-03-15T07:58:28.770Z,94990.78
2023-03-15T08:00:58.211Z,94983.47
2023-03-15T08:03:25.072Z,94978.94
2023-03-15T08:05:51.658Z,94988.94
2023-03-15T08:08:18.242Z,94996.59
2023-03-15T08:10:45.097Z,95001.41
2023-03-15T08:13:11.909Z,95011.25
2023-03-15T08:15:38.360Z,95012.44
2023-03-15T08:18:06.527Z,95011.38
2023-03-15T08:20:35.765Z,95014.63
2023-03-15T08:23:02.626Z,95017.47
2023-03-15T08:25:29.310Z,95022.66
2023-03-15T08:27:55.764Z,95019.28
2023-03-15T08:30:22.788Z,95023.88
2023-03-15T08:32:49.868Z,95025.63
2023-03-15T08:35:17.282Z,95030.66
2023-03-15T08:37:47.869Z,95033.09
2023-03-15T08:40:16.116Z,95036.78
2023-03-15T08:42:42.598Z,95021.78
2023-03-15T08:45:09.395Z,95032.06
2023-03-15T08:47:36.342Z,95026.09
2023-03-15T08:50:05.457Z,95035.44
2023-03-15T08:52:32.031Z,95041.16
2023-03-15T08:54:58.512Z,95036.66
2023-03-15T08:57:25.997Z,95051.25
2023-03-15T08:59:52.864Z,95056.44
2023-03-15T09:02:19.389Z,95051.13
2023-03-15T09:04:45.979Z,95058.03
2023-03-15T09:07:12.616Z,95056.63
2023-03-15T09:09:39.155Z,95062.34
2023-03-15T09:12:05.772Z,95062.16
2023-03-15T09:14:32.215Z,95066.31
2023-03-15T09:16:58.744Z,95062.38
2023-03-15T09:19:25.253Z,95072.59
2023-03-15T09:21:51.754Z,95075.22
2023-03-15T09:24:18.407Z,95073.16
2023-03-15T09:26:44.869Z,95075.25
2023-03-15T09:29:11.344Z,95085.72
2023-03-15T09:31:37.887Z,95082.34
2023-03-15T09:34:05.751Z,95084.97
2023-03-15T09:36:32.925Z,95088.09
2023-03-15T09:38:59.753Z,95093.53
2023-03-15T09:41:46.775Z,95099.09
2023-03-15T09:44:28.423Z,95096.53
2023-03-15T09:47:04.089Z,95098.94
2023-03-15T09:49:37.453Z,95105.28
2023-03-15T09:52:09.689Z,95106.28
2023-03-15T09:54:46.429Z,95103.81
2023-03-15T09:57:19.633Z,95103.81
2023-03-15T09:59:49.334Z,95108.25
2023-03-15T10:02:19.613Z,95104.44
2023-03-15T10:04:47.387Z,95113.56
2023-03-15T10:07:14.672Z,95130.81
2023-03-15T10:09:41.108Z,95116.97
2023-03-15T10:12:18.866Z,95119.59
2023-03-15T10:15:03.889Z,95116.06
2023-03-15T10:17:35.326Z,95124.81
2023-03-15T10:20:23.834Z,95123.81
2023-03-15T10:22:55.388Z,95117.84
2023-03-15T10:25:26.197Z,95113.44
2023-03-15T10:27:55.937Z,95107.72
2023-03-15T10:30:26.779Z,95109.22
2023-03-15T10:32:59.059Z,95115.56
2023-03-15T10:35:26.063Z,95116.66
2023-03-15T10:37:52.484Z,95133.94
2023-03-15T10:40:37.442Z,95131.94
2023-03-15T10:43:12.066Z,95134.19
2023-03-15T10:45:39.610Z,95134.66
2023-03-15T10:48:07.806Z,95119.63
2023-03-15T10:50:37.752Z,95125.28
2023-03-15T10:53:08.937Z,95120.88
2023-03-15T10:55:58.382Z,95126.53
2023-03-15T10:58:31.419Z,95126.94
2023-03-15T11:01:03.854Z,95133.78
2023-03-15T11:03:31.284Z,95139.84
2023-03-15T11:05:58.722Z,95132.72
2023-03-15T11:08:35.810Z,95134.47
2023-03-15T11:11:02.527Z,95149.69
2023-03-15T11:13:31.008Z,95141.09
2023-03-15T11:16:06.482Z,95143.53
2023-03-15T11:18:37.649Z,95157.97
2023-03-15T11:21:06.988Z,95164.03
2023-03-15T11:23:38.061Z,95143.47
2023-03-15T11:26:05.192Z,95164.75
2023-03-15T11:28:33.088Z,95149.69
2023-03-15T11:31:04.874Z,95164.31
2023-03-15T11:33:48.201Z,95160.66
2023-03-15T11:36:17.699Z,95164.25
2023-03-15T11:38:44.963Z,95165.56
2023-03-15T11:41:17.156Z,95176.88
2023-03-15T11:43:55.097Z,95166.84
2023-03-15T11:46:27.434Z,95166.78
2023-03-15T11:49:12.846Z,95169.56
2023-03-15T11:51:39.704Z,95167.19
2023-03-15T11:54:09.865Z,95157.78
2023-03-15T11:56:47.194Z,95167.44
2023-03-15T11:59:13.612Z,95168.63
2023-03-15T12:01:45.840Z,95167.88
2023-03-15T12:04:24.399Z,95168.06
2023-03-15T12:06:54.326Z,95177.50
2023-03-15T12:09:39.973Z,95172.53
2023-03-15T12:12:29.469Z,95176.13
2023-03-15T12:15:03.907Z,95176.28
2023-03-15T12:17:38.497Z,95175.72
2023-03-15T12:20:12.389Z,95181.84
2023-03-15T12:23:02.185Z,95178.97
2023-03-15T12:25:39.487Z,95178.66
2023-03-15T12:28:20.163Z,95181.16
2023-03-15T12:30:52.951Z,95193.75
2023-03-15T12:33:20.926Z,95181.66
2023-03-15T12:35:48.901Z,95178.41
2023-03-15T12:38:17.347Z,95175.53
2023-03-15T12:40:50.088Z,95171.91
2023-03-15T12:43:34.774Z,95175.16
2023-03-15T12:46:01.304Z,95181.41
2023-03-15T12:48:28.483Z,95180.03
2023-03-15T12:50:56.489Z,95182.16
2023-03-15T12:53:27.415Z,95178.78
2023-03-15T12:56:06.229Z,95187.91
2023-03-15T12:58:39.144Z,95188.16
2023-03-15T13:01:07.510Z,95180.69
2023-03-15T13:03:35.271Z,95184.72
2023-03-15T13:06:08.737Z,95191.28
2023-03-15T13:08:43.848Z,95207.13
2023-03-15T13:11:11.844Z,95200.50
2023-03-15T13:13:53.728Z,95209.66
2023-03-15T13:16:29.284Z,95206.00
2023-03-15T13:19:18.913Z,95210.56
2023-03-15T13:22:04.027Z,95209.09
2023-03-15T13:24:44.777Z,95216.81
2023-03-15T13:27:34.676Z,95223.28
2023-03-15T13:30:19.743Z,95219.31
2023-03-15T13:32:46.329Z,95218.94
2023-03-15T13:35:13.819Z,95224.34
2023-03-15T13:37:45.285Z,95229.34
2023-03-15T13:40:13.754Z,95225.38
2023-03-15T13:42:41.165Z,95225.19
2023-03-15T13:45:15.005Z,95226.59
2023-03-15T13:47:42.710Z,95232.22
2023-03-15T13:50:13.339Z,95242.63
2023-03-15T13:52:41.071Z,95248.16
2023-03-15T13:55:08.004Z,95236.00
2023-03-15T13:57:34.492Z,95242.91
2023-03-15T14:00:05.012Z,95241.00
2023-03-15T14:02:37.602Z,95237.47
2023-03-15T14:05:09.398Z,95243.09
2023-03-15T14:07:39.913Z,95235.41
2023-03-15T14:10:18.873Z,95235.84
2023-03-15T14:12:45.828Z,95236.72
2023-03-15T14:15:17.749Z,95243.97
2023-03-15T14:18:02.892Z,95240.78
2023-03-15T14:20:38.697Z,95236.03
2023-03-15T14:23:09.656Z,95238.34
2023-03-15T14:25:37.019Z,95245.97
2023-03-15T14:28:04.697Z,95242.50
2023-03-15T14:30:34.740Z,95241.59
2023-03-15T14:33:03.740Z,95241.28
2023-03-15T14:35:30.159Z,95243.09
2023-03-15T14:38:15.011Z,95239.69
2023-03-15T14:40:41.607Z,95244.53
2023-03-15T14:43:09.525Z,95254.78
2023-03-15T14:45:37.600Z,95243.84
2023-03-15T14:48:08.470Z,95250.44
2023-03-15T14:50:36.785Z,95258.38
2023-03-15T14:53:03.356Z,95260.41
2023-03-15T14:55:34.938Z,95264.25
2023-03-15T14:58:02.354Z,95256.75
2023-03-15T15:00:28.874Z,95264.19
2023-03-15T15:02:56.388Z,95272.81
2023-03-15T15:05:22.934Z,95267.72
2023-03-15T15:07:54.675Z,95265.28
2023-03-15T15:10:25.625Z,95269.44
2023-03-15T15:13:05.245Z,95271.94
2023-03-15T15:15:40.781Z,95276.88
2023-03-15T15:18:18.263Z,95275.41
2023-03-15T15:20:45.235Z,95267.88
2023-03-15T15:23:19.631Z,95271.06
2023-03-15T15:25:48.066Z,95281.31
2023-03-15T15:28:27.372Z,95278.31
2023-03-15T15:31:00.655Z,95290.53
2023-03-15T15:33:27.084Z,95280.25
2023-03-15T15:35:54.819Z,95281.53
2023-03-15T15:38:23.532Z,95278.31
2023-03-15T15:40:49.962Z,95284.78
2023-03-15T15:43:16.827Z,95281.19
2023-03-15T15:45:43.304Z,95293.03
2023-03-15T15:48:09.781Z,95286.78
2023-03-15T15:50:36.688Z,95287.41
2023-03-15T15:53:04.650Z,95294.28
2023-03-15T15:55:33.721Z,95305.03
2023-03-15T15:58:01.253Z,95299.41
2023-03-15T16:00:28.325Z,95305.75
2023-03-15T16:02:56.599Z,95304.16
2023-03-15T16:05:25.249Z,95304.97
2023-03-15T16:07:52.248Z,95306.75
2023-03-15T16:10:18.940Z,95306.47
2023-03-15T16:12:46.006Z,95310.78
2023-03-15T16:15:14.537Z,95320.91
2023-03-15T16:17:41.216Z,95322.16
2023-03-15T16:20:09.206Z,95334.19
2023-03-15T16:22:37.394Z,95333.38
2023-03-15T16:25:08.162Z,95338.44
2023-03-15T16:27:34.632Z,95337.91
2023-03-15T16:30:02.812Z,95340.88
2023-03-15T16:32:43.286Z,95344.44
2023-03-15T16:35:15.705Z,95352.03
2023-03-15T16:37:42.972Z,95343.44
2023-03-15T16:40:15.068Z,95356.78
2023-03-15T16:42:41.519Z,95363.63
2023-03-15T16:45:12.583Z,95362.22
2023-03-15T16:47:39.021Z,95371.22
2023-03-15T16:50:05.667Z,95372.69
2023-03-15T16:52:32.829Z,95371.97
2023-03-15T16:55:01.131Z,95376.84
2023-03-15T16:57:27.719Z,95380.88
2023-03-15T16:59:54.182Z,95379.16
2023-03-15T17:02:22.177Z,95387.03
2023-03-15T17:04:49.247Z,95388.50
2023-03-15T17:07:17.163Z,95381.97
2023-03-15T17:09:45.491Z,95387.13
2023-03-15T17:12:23.875Z,95392.28
2023-03-15T17:14:50.765Z,95394.34
2023-03-15T17:17:17.714Z,95391.56
2023-03-15T17:19:44.498Z,95396.72
2023-03-15T17:22:11.953Z,95392.28
2023-03-15T17:24:38.497Z,95404.59
2023-03-15T17:27:05.284Z,95401.16
2023-03-15T17:29:31.804Z,95404.66
2023-03-15T17:31:58.880Z,95408.84
2023-03-15T17:34:26.755Z,95408.09
2023-03-15T17:36:53.949Z,95412.81
2023-03-15T17:39:20.888Z,95417.03
2023-03-15T17:41:47.910Z,95413.72
2023-03-15T17:44:14.397Z,95420.50
2023-03-15T17:46:41.326Z,95433.88
2023-03-15T17:49:09.349Z,95436.03
2023-03-15T17:51:36.591Z,95436.03
2023-03-15T17:54:12.219Z,95428.09
2023-03-15T17:56:38.999Z,95436.22
2023-03-15T17:59:05.647Z,95434.16
2023-03-15T18:01:32.385Z,95433.88
2023-03-15T18:03:59.122Z,95436.13
2023-03-15T18:06:25.650Z,95431.34
2023-03-15T18:08:52.271Z,95431.25
2023-03-15T18:11:18.744Z,95429.88
2023-03-15T18:13:45.250Z,95434.22
2023-03-15T18:16:12.278Z,95429.06
2023-03-15T18:18:38.852Z,95438.22
2023-03-15T18:21:05.472Z,95440.38
2023-03-15T18:23:32.011Z,95430.41
2023-03-15T18:25:58.606Z,95447.53
2023-03-15T18:28:25.141Z,95435.75
2023-03-15T18:30:51.636Z,95436.22
2023-03-15T18:33:19.008Z,95443.81
2023-03-15T18:35:45.576Z,95444.53
2023-03-15T18:38:12.118Z,95444.41
2023-03-15T18:40:38.562Z,95442.94
2023-03-15T18:43:05.619Z,95443.31
2023-03-15T18:45:33.364Z,95450.66
2023-03-15T18:48:00.028Z,95449.81
2023-03-15T18:50:27.237Z,95449.47
2023-03-15T18:52:53.692Z,95456.31
2023-03-15T18:55:22.262Z,95456.31
2023-03-15T18:57:49.812Z,95464.03
2023-03-15T19:00:23.763Z,95454.53
2023-03-15T19:02:51.029Z,95465.25
2023-03-15T19:05:18.063Z,95468.84
2023-03-15T19:07:47.310Z,95469.09
2023-03-15T19:10:15.319Z,95474.44
2023-03-15T19:12:42.373Z,95468.06
2023-03-15T19:15:15.056Z,95471.16
2023-03-15T19:17:42.251Z,95482.09
2023-03-15T19:20:12.242Z,95475.22
2023-03-15T19:22:39.036Z,95485.81
2023-03-15T19:25:06.363Z,95476.59
2023-03-15T19:27:32.848Z,95468.66
2023-03-15T19:29:59.344Z,95473.25
2023-03-15T19:32:25.808Z,95467.53
2023-03-15T19:34:52.308Z,95472.44
2023-03-15T19:37:18.753Z,95471.28
2023-03-15T19:39:45.263Z,95483.06
2023-03-15T19:42:11.790Z,95493.72
2023-03-15T19:44:38.290Z,95502.13
2023-03-15T19:47:04.925Z,95493.63
2023-03-15T19:49:31.421Z,95494.97
2023-03-15T19:51:57.897Z,95506.47
2023-03-15T19:54:24.656Z,95507.44
2023-03-15T19:56:51.288Z,95511.78
2023-03-15T19:59:17.990Z,95511.91
2023-03-15T20:01:44.530Z,95513.88
2023-03-15T20:04:11.174Z,95515.94
2023-03-15T20:06:37.816Z,95519.16
2023-03-15T20:09:05.905Z,95519.81
2023-03-15T20:11:32.425Z,95520.28
2023-03-15T20:13:59.096Z,95524.81
2023-03-15T20:16:25.859Z,95537.28
2023-03-15T20:18:53.660Z,95530.84
2023-03-15T20:21:20.205Z,95536.44
2023-03-15T20:23:47.954Z,95535.75
2023-03-15T20:26:16.789Z,95540.81
2023-03-15T20:28:44.333Z,95536.56
2023-03-15T20:31:12.330Z,95539.13
2023-03-15T20:33:39.205Z,95538.78
2023-03-15T20:36:06.581Z,95539.47
2023-03-15T20:38:37.314Z,95539.81
2023-03-15T20:41:04.701Z,95538.53
2023-03-15T20:43:32.934Z,95545.56
2023-03-15T20:46:00.544Z,95539.47
2023-03-15T20:48:27.447Z,95537.78
2023-03-15T20:50:53.879Z,95537.78
2023-03-15T20:53:20.492Z,95539.78
2023-03-15T20:55:47.209Z,95538.13
2023-03-15T20:58:13.707Z,95536.50
2023-03-15T21:00:41.138Z,95539.13
2023-03-15T21:03:07.908Z,95547.16
2023-03-15T21:05:35.660Z,95546.16
2023-03-15T21:08:02.101Z,95545.63
2023-03-15T21:10:28.625Z,95552.16
2023-03-15T21:12:55.103Z,95550.88
2023-03-15T21:15:21.591Z,95550.28
2023-03-15T21:17:50.800Z,95557.16
2023-03-15T21:20:17.986Z,95553.78
2023-03-15T21:22:44.484Z,95550.63
2023-03-15T21:25:11.416Z,95545.03
2023-03-15T21:27:37.843Z,95556.63
2023-03-15T21:30:04.550Z,95548.44
2023-03-15T21:32:31.091Z,95545.63
2023-03-15T21:34:57.841Z,95547.44
2023-03-15T21:37:24.291Z,95544.66
2023-03-15T21:39:50.731Z,95560.06
2023-03-15T21:42:17.179Z,95553.97
2023-03-15T21:44:43.669Z,95560.81
2023-03-15T21:47:10.343Z,95561.94
2023-03-15T21:49:36.783Z,95564.03
2023-03-15T21:52:03.347Z,95563.34
2023-03-15T21:54:29.897Z,95567.22
2023-03-15T21:56:56.510Z,95571.50
2023-03-15T21:59:28.241Z,95574.72
2023-03-15T22:01:55.511Z,95576.25
2023-03-15T22:04:22.061Z,95581.09
2023-03-15T22:06:48.603Z,95581.09
2023-03-15T22:09:15.040Z,95586.09
2023-03-15T22:11:41.478Z,95584.31
2023-03-15T22:14:07.925Z,95593.13
2023-03-15T22:16:34.506Z,95594.22
2023-03-15T22:19:03.123Z,95591.56
2023-03-15T22:21:32.598Z,95587.81
2023-03-15T22:23:59.045Z,95598.75
2023-03-15T22:26:25.771Z,95595.50
2023-03-15T22:28:52.275Z,95595.19
2023-03-15T22:31:19.092Z,95591.09
2023-03-15T22:33:45.572Z,95600.00
2023-03-15T22:36:12.040Z,95594.59
2023-03-15T22:38:38.500Z,95597.84
2023-03-15T22:41:06.748Z,95613.88
2023-03-15T22:43:33.264Z,95612.25
2023-03-15T22:45:59.852Z,95611.09
2023-03-15T22:48:26.345Z,95607.31
2023-03-15T22:50:56.714Z,95617.63
2023-03-15T22:53:23.191Z,95624.69
2023-03-15T22:55:49.648Z,95630.31
2023-03-15T22:58:16.115Z,95625.56
2023-03-15T23:00:42.583Z,95625.91
2023-03-15T23:03:09.039Z,95620.53
2023-03-15T23:05:35.757Z,95628.84
2023-03-15T23:08:03.384Z,95631.63
2023-03-15T23:10:29.863Z,95628.00
2023-03-15T23:12:56.356Z,95633.22
2023-03-15T23:15:23.125Z,95634.03
2023-03-15T23:17:49.788Z,95636.47
2023-03-15T23:20:17.487Z,95641.81
2023-03-15T23:22:44.800Z,95635.59
2023-03-15T23:25:11.842Z,95633.22
2023-03-15T23:27:38.385Z,95635.22
2023-03-15T23:30:05.778Z,95641.56
2023-03-15T23:32:32.338Z,95639.75
2023-03-15T23:34:58.815Z,95642.34
2023-03-15T23:37:25.315Z,95637.78
2023-03-15T23:39:53.425Z,95642.97
2023-03-15T23:42:20.064Z,95643.78
2023-03-15T23:44:46.505Z,95632.50
2023-03-15T23:47:12.945Z,95648.19
2023-03-15T23:49:39.413Z,95644.94
2023-03-15T23:52:06.233Z,95647.84
2023-03-15T23:54:39.415Z,95639.66
2023-03-15T23:57:06.673Z,95644.88
2023-03-15T23:59:34.843Z,95651.59
